首页
METAR-TAF:

METAR-TAF

机场 :

策尔特韦格, 奥地利

纬度: 47-12N, 经度: 014-45E, 海拔: 677米

当前天气观测

该预报发布于59分钟前的18:50 UTC
风速3节,风向南转南东
温度 2°C
湿度 37%
气压 1027 hPa

METAR: LOXZ 211850Z 16003KT 15KM FEW060SC 02/M11 Q1027

时间: 20:49 (19:49 UTC)

预报

该预报发布于8小时和34分钟前的11:15 UTC
预报有效从21日的 12点(UTC)到 21日的 21点(UTC)
风速12节,风向西转西北,有时为28节阵风
能见度10公里或以上
少量云层高于5000英尺
散云层高于7000英尺
成为
从 21日的 16点(UTC)到 21日的 18点(UTC)
风速3节,风向多变

TAF: LOXZ 211115Z 2112/2121 30012G28KT 9999 FEW050 SCT070 BECMG 2116/2118 VRB03KT

超过4000个机场的气象观测和天气预报(METAR&TAF报告)。

可查询的气象台以黄色和红色小点在地图上表示。

将鼠标移到小点上方,可查看气象台名称。

然后点击查看天气观测和预报。

如需切换地图:点击带黑十字的绿色按钮放大地图;点击带横线的绿色按钮缩小地图;或者点击绿色箭头查看邻近地区的地图。


METAR-TAF: